sensor_id;sensor_type;location;lat;lon;timestamp;temperature;humidity
80579;SHT31;69939;52.402;6.608;2024-01-11T00:02:14;-5.38;84.19
80579;SHT31;69939;52.402;6.608;2024-01-11T00:04:45;-5.40;83.95
80579;SHT31;69939;52.402;6.608;2024-01-11T00:07:14;-5.46;84.51
80579;SHT31;69939;52.402;6.608;2024-01-11T00:09:44;-5.55;84.82
80579;SHT31;69939;52.402;6.608;2024-01-11T00:12:14;-5.59;85.01
80579;SHT31;69939;52.402;6.608;2024-01-11T00:14:48;-5.67;85.24
80579;SHT31;69939;52.402;6.608;2024-01-11T00:17:19;-5.83;85.35
80579;SHT31;69939;52.402;6.608;2024-01-11T00:19:54;-5.90;86.43
80579;SHT31;69939;52.402;6.608;2024-01-11T00:22:24;-5.95;86.33
80579;SHT31;69939;52.402;6.608;2024-01-11T00:24:53;-6.00;86.48
80579;SHT31;69939;52.402;6.608;2024-01-11T00:27:23;-6.04;86.38
80579;SHT31;69939;52.402;6.608;2024-01-11T00:29:54;-6.07;86.79
80579;SHT31;69939;52.402;6.608;2024-01-11T00:32:24;-6.10;86.93
80579;SHT31;69939;52.402;6.608;2024-01-11T00:34:58;-6.11;87.66
80579;SHT31;69939;52.402;6.608;2024-01-11T00:37:27;-6.11;87.07
80579;SHT31;69939;52.402;6.608;2024-01-11T00:39:57;-6.12;87.61
80579;SHT31;69939;52.402;6.608;2024-01-11T00:42:33;-6.14;88.25
80579;SHT31;69939;52.402;6.608;2024-01-11T00:45:06;-6.15;88.12
80579;SHT31;69939;52.402;6.608;2024-01-11T00:47:36;-6.15;87.85
80579;SHT31;69939;52.402;6.608;2024-01-11T00:50:08;-6.18;88.37
80579;SHT31;69939;52.402;6.608;2024-01-11T00:52:39;-6.17;88.51
80579;SHT31;69939;52.402;6.608;2024-01-11T00:55:11;-6.17;88.41
80579;SHT31;69939;52.402;6.608;2024-01-11T00:57:47;-6.12;88.34
80579;SHT31;69939;52.402;6.608;2024-01-11T01:00:18;-6.10;88.30
80579;SHT31;69939;52.402;6.608;2024-01-11T01:02:48;-6.05;88.60
80579;SHT31;69939;52.402;6.608;2024-01-11T01:05:19;-6.07;88.31
80579;SHT31;69939;52.402;6.608;2024-01-11T01:07:49;-6.07;88.25
80579;SHT31;69939;52.402;6.608;2024-01-11T01:10:18;-6.12;88.60
80579;SHT31;69939;52.402;6.608;2024-01-11T01:12:52;-6.08;88.60
80579;SHT31;69939;52.402;6.608;2024-01-11T01:15:27;-6.10;88.81
80579;SHT31;69939;52.402;6.608;2024-01-11T01:17:56;-6.08;88.81
80579;SHT31;69939;52.402;6.608;2024-01-11T01:20:27;-6.07;88.99
80579;SHT31;69939;52.402;6.608;2024-01-11T01:22:57;-5.98;89.17
80579;SHT31;69939;52.402;6.608;2024-01-11T01:25:32;-5.94;88.97
80579;SHT31;69939;52.402;6.608;2024-01-11T01:28:04;-5.93;88.79
80579;SHT31;69939;52.402;6.608;2024-01-11T01:30:34;-5.95;89.23
80579;SHT31;69939;52.402;6.608;2024-01-11T01:33:04;-6.00;88.76
80579;SHT31;69939;52.402;6.608;2024-01-11T01:35:33;-6.05;89.37
80579;SHT31;69939;52.402;6.608;2024-01-11T01:38:03;-6.04;89.39
80579;SHT31;69939;52.402;6.608;2024-01-11T01:40:37;-6.00;89.44
80579;SHT31;69939;52.402;6.608;2024-01-11T01:43:07;-6.03;89.31
80579;SHT31;69939;52.402;6.608;2024-01-11T01:45:39;-6.08;89.04
80579;SHT31;69939;52.402;6.608;2024-01-11T01:48:09;-6.14;90.10
80579;SHT31;69939;52.402;6.608;2024-01-11T01:50:40;-6.15;89.75
80579;SHT31;69939;52.402;6.608;2024-01-11T01:53:16;-6.22;90.28
80579;SHT31;69939;52.402;6.608;2024-01-11T01:55:50;-6.31;90.88
80579;SHT31;69939;52.402;6.608;2024-01-11T01:58:22;-6.32;91.24
80579;SHT31;69939;52.402;6.608;2024-01-11T02:00:54;-6.33;90.96
80579;SHT31;69939;52.402;6.608;2024-01-11T02:03:26;-6.38;90.97
80579;SHT31;69939;52.402;6.608;2024-01-11T02:05:58;-6.39;91.53
80579;SHT31;69939;52.402;6.608;2024-01-11T02:08:28;-6.42;91.80
80579;SHT31;69939;52.402;6.608;2024-01-11T02:11:02;-6.45;92.19
80579;SHT31;69939;52.402;6.608;2024-01-11T02:13:33;-6.48;91.55
80579;SHT31;69939;52.402;6.608;2024-01-11T02:16:06;-6.48;92.04
80579;SHT31;69939;52.402;6.608;2024-01-11T02:18:43;-6.52;91.94
80579;SHT31;69939;52.402;6.608;2024-01-11T02:21:14;-6.48;92.38
80579;SHT31;69939;52.402;6.608;2024-01-11T02:24:01;-6.42;91.95
80579;SHT31;69939;52.402;6.608;2024-01-11T02:26:33;-6.45;91.61
80579;SHT31;69939;52.402;6.608;2024-01-11T02:29:03;-6.43;91.63
80579;SHT31;69939;52.402;6.608;2024-01-11T02:31:32;-6.48;91.21
80579;SHT31;69939;52.402;6.608;2024-01-11T02:34:02;-6.56;92.31
80579;SHT31;69939;52.402;6.608;2024-01-11T02:36:37;-6.54;92.59
80579;SHT31;69939;52.402;6.608;2024-01-11T02:39:07;-6.54;92.72
80579;SHT31;69939;52.402;6.608;2024-01-11T02:41:37;-6.53;92.77
80579;SHT31;69939;52.402;6.608;2024-01-11T02:44:09;-6.54;92.30
80579;SHT31;69939;52.402;6.608;2024-01-11T02:46:38;-6.56;92.66
80579;SHT31;69939;52.402;6.608;2024-01-11T02:49:08;-6.58;92.55
80579;SHT31;69939;52.402;6.608;2024-01-11T02:51:40;-6.60;92.59
80579;SHT31;69939;52.402;6.608;2024-01-11T02:54:12;-6.63;93.27
80579;SHT31;69939;52.402;6.608;2024-01-11T02:56:42;-6.58;93.05
80579;SHT31;69939;52.402;6.608;2024-01-11T02:59:11;-6.54;92.69
80579;SHT31;69939;52.402;6.608;2024-01-11T03:01:41;-6.53;92.77
80579;SHT31;69939;52.402;6.608;2024-01-11T03:04:15;-6.46;92.83
80579;SHT31;69939;52.402;6.608;2024-01-11T03:06:48;-6.43;92.79
80579;SHT31;69939;52.402;6.608;2024-01-11T03:09:19;-6.39;92.79
80579;SHT31;69939;52.402;6.608;2024-01-11T03:11:49;-6.35;92.52
80579;SHT31;69939;52.402;6.608;2024-01-11T03:14:18;-6.32;92.58
80579;SHT31;69939;52.402;6.608;2024-01-11T03:16:48;-6.33;92.03
80579;SHT31;69939;52.402;6.608;2024-01-11T03:19:17;-6.36;92.41
80579;SHT31;69939;52.402;6.608;2024-01-11T03:21:53;-6.35;92.41
80579;SHT31;69939;52.402;6.608;2024-01-11T03:24:23;-6.38;92.23
80579;SHT31;69939;52.402;6.608;2024-01-11T03:26:54;-6.32;92.64
80579;SHT31;69939;52.402;6.608;2024-01-11T03:29:24;-6.32;92.36
80579;SHT31;69939;52.402;6.608;2024-01-11T03:31:53;-6.28;92.14
80579;SHT31;69939;52.402;6.608;2024-01-11T03:34:23;-6.28;92.30
80579;SHT31;69939;52.402;6.608;2024-01-11T03:36:55;-6.29;92.33
80579;SHT31;69939;52.402;6.608;2024-01-11T03:39:25;-6.32;92.46
80579;SHT31;69939;52.402;6.608;2024-01-11T03:42:04;-6.33;91.90
80579;SHT31;69939;52.402;6.608;2024-01-11T03:44:38;-6.42;92.37
80579;SHT31;69939;52.402;6.608;2024-01-11T03:47:08;-6.45;92.52
80579;SHT31;69939;52.402;6.608;2024-01-11T03:49:39;-6.45;92.94
80579;SHT31;69939;52.402;6.608;2024-01-11T03:52:08;-6.43;92.69
80579;SHT31;69939;52.402;6.608;2024-01-11T03:54:43;-6.42;92.75
80579;SHT31;69939;52.402;6.608;2024-01-11T03:57:14;-6.42;92.73
80579;SHT31;69939;52.402;6.608;2024-01-11T03:59:44;-6.41;92.97
80579;SHT31;69939;52.402;6.608;2024-01-11T04:02:15;-6.39;93.08
80579;SHT31;69939;52.402;6.608;2024-01-11T04:04:44;-6.35;93.01
80579;SHT31;69939;52.402;6.608;2024-01-11T04:07:26;-6.36;92.58
80579;SHT31;69939;52.402;6.608;2024-01-11T04:09:57;-6.38;92.59
80579;SHT31;69939;52.402;6.608;2024-01-11T04:12:27;-6.43;92.32
80579;SHT31;69939;52.402;6.608;2024-01-11T04:14:57;-6.48;93.14
80579;SHT31;69939;52.402;6.608;2024-01-11T04:17:26;-6.48;92.89
80579;SHT31;69939;52.402;6.608;2024-01-11T04:19:56;-6.46;93.03
80579;SHT31;69939;52.402;6.608;2024-01-11T04:22:30;-6.49;92.88
80579;SHT31;69939;52.402;6.608;2024-01-11T04:25:00;-6.49;93.55
80579;SHT31;69939;52.402;6.608;2024-01-11T04:27:30;-6.46;93.16
80579;SHT31;69939;52.402;6.608;2024-01-11T04:30:00;-6.48;93.27
80579;SHT31;69939;52.402;6.608;2024-01-11T04:32:29;-6.50;93.21
80579;SHT31;69939;52.402;6.608;2024-01-11T04:35:08;-6.52;93.38
80579;SHT31;69939;52.402;6.608;2024-01-11T04:37:38;-6.52;93.11
80579;SHT31;69939;52.402;6.608;2024-01-11T04:40:09;-6.58;93.24
80579;SHT31;69939;52.402;6.608;2024-01-11T04:42:45;-6.60;93.41
80579;SHT31;69939;52.402;6.608;2024-01-11T04:45:15;-6.62;93.89
80579;SHT31;69939;52.402;6.608;2024-01-11T04:47:45;-6.63;94.20
80579;SHT31;69939;52.402;6.608;2024-01-11T04:50:15;-6.69;94.30
80579;SHT31;69939;52.402;6.608;2024-01-11T04:52:45;-6.72;94.30
80579;SHT31;69939;52.402;6.608;2024-01-11T04:55:15;-6.73;94.66
80579;SHT31;69939;52.402;6.608;2024-01-11T04:57:47;-6.76;94.61
80579;SHT31;69939;52.402;6.608;2024-01-11T05:00:17;-6.72;94.47
80579;SHT31;69939;52.402;6.608;2024-01-11T05:02:49;-6.75;94.52
80579;SHT31;69939;52.402;6.608;2024-01-11T05:05:19;-6.76;95.09
80579;SHT31;69939;52.402;6.608;2024-01-11T05:07:57;-6.77;94.45
80579;SHT31;69939;52.402;6.608;2024-01-11T05:10:28;-6.80;94.53
80579;SHT31;69939;52.402;6.608;2024-01-11T05:12:58;-6.77;95.11
80579;SHT31;69939;52.402;6.608;2024-01-11T05:15:27;-6.72;94.46
80579;SHT31;69939;52.402;6.608;2024-01-11T05:17:58;-6.75;94.76
80579;SHT31;69939;52.402;6.608;2024-01-11T05:20:27;-6.75;94.73
80579;SHT31;69939;52.402;6.608;2024-01-11T05:23:00;-6.75;94.77
80579;SHT31;69939;52.402;6.608;2024-01-11T05:25:30;-6.79;94.77
80579;SHT31;69939;52.402;6.608;2024-01-11T05:28:01;-6.79;94.73
80579;SHT31;69939;52.402;6.608;2024-01-11T05:30:33;-6.76;94.94
80579;SHT31;69939;52.402;6.608;2024-01-11T05:33:04;-6.73;94.48
80579;SHT31;69939;52.402;6.608;2024-01-11T05:35:37;-6.76;94.23
80579;SHT31;69939;52.402;6.608;2024-01-11T05:38:10;-6.75;94.77
80579;SHT31;69939;52.402;6.608;2024-01-11T05:40:39;-6.69;94.86
80579;SHT31;69939;52.402;6.608;2024-01-11T05:43:11;-6.70;94.82
80579;SHT31;69939;52.402;6.608;2024-01-11T05:45:43;-6.70;94.85
80579;SHT31;69939;52.402;6.608;2024-01-11T05:48:13;-6.72;95.19
80579;SHT31;69939;52.402;6.608;2024-01-11T05:50:45;-6.68;94.97
80579;SHT31;69939;52.402;6.608;2024-01-11T05:53:18;-6.60;95.33
80579;SHT31;69939;52.402;6.608;2024-01-11T05:55:47;-6.54;95.14
80579;SHT31;69939;52.402;6.608;2024-01-11T05:58:18;-6.50;94.88
80579;SHT31;69939;52.402;6.608;2024-01-11T06:00:48;-6.49;95.50
80579;SHT31;69939;52.402;6.608;2024-01-11T06:03:17;-6.43;95.21
80579;SHT31;69939;52.402;6.608;2024-01-11T06:05:53;-6.43;95.01
80579;SHT31;69939;52.402;6.608;2024-01-11T06:08:23;-6.42;95.37
80579;SHT31;69939;52.402;6.608;2024-01-11T06:10:52;-6.29;95.49
80579;SHT31;69939;52.402;6.608;2024-01-11T06:13:22;-6.29;95.38
80579;SHT31;69939;52.402;6.608;2024-01-11T06:15:52;-6.25;95.51
80579;SHT31;69939;52.402;6.608;2024-01-11T06:18:21;-6.22;95.44
80579;SHT31;69939;52.402;6.608;2024-01-11T06:20:54;-6.22;95.40
80579;SHT31;69939;52.402;6.608;2024-01-11T06:23:25;-6.20;95.39
80579;SHT31;69939;52.402;6.608;2024-01-11T06:25:54;-6.20;95.52
80579;SHT31;69939;52.402;6.608;2024-01-11T06:28:25;-6.20;95.14
80579;SHT31;69939;52.402;6.608;2024-01-11T06:30:55;-6.22;95.23
80579;SHT31;69939;52.402;6.608;2024-01-11T06:33:25;-6.32;95.07
80579;SHT31;69939;52.402;6.608;2024-01-11T06:36:00;-6.39;95.00
80579;SHT31;69939;52.402;6.608;2024-01-11T06:38:30;-6.46;95.54
80579;SHT31;69939;52.402;6.608;2024-01-11T06:41:00;-6.49;96.15
80579;SHT31;69939;52.402;6.608;2024-01-11T06:43:29;-6.49;96.47
80579;SHT31;69939;52.402;6.608;2024-01-11T06:46:02;-6.53;96.06
80579;SHT31;69939;52.402;6.608;2024-01-11T06:48:32;-6.54;96.40
80579;SHT31;69939;52.402;6.608;2024-01-11T06:51:14;-6.59;96.21
80579;SHT31;69939;52.402;6.608;2024-01-11T06:53:44;-6.62;96.16
80579;SHT31;69939;52.402;6.608;2024-01-11T06:56:14;-6.65;97.05
80579;SHT31;69939;52.402;6.608;2024-01-11T06:58:45;-6.65;97.02
80579;SHT31;69939;52.402;6.608;2024-01-11T07:01:15;-6.65;97.06
80579;SHT31;69939;52.402;6.608;2024-01-11T07:03:46;-6.68;97.27
80579;SHT31;69939;52.402;6.608;2024-01-11T07:06:18;-6.66;97.49
80579;SHT31;69939;52.402;6.608;2024-01-11T07:08:48;-6.68;96.99
80579;SHT31;69939;52.402;6.608;2024-01-11T07:11:17;-6.66;97.41
80579;SHT31;69939;52.402;6.608;2024-01-11T07:13:47;-6.66;96.59
80579;SHT31;69939;52.402;6.608;2024-01-11T07:16:17;-6.69;97.05
80579;SHT31;69939;52.402;6.608;2024-01-11T07:18:46;-6.66;96.97
80579;SHT31;69939;52.402;6.608;2024-01-11T07:21:23;-6.68;96.94
80579;SHT31;69939;52.402;6.608;2024-01-11T07:23:55;-6.66;97.73
80579;SHT31;69939;52.402;6.608;2024-01-11T07:26:30;-6.60;98.09
80579;SHT31;69939;52.402;6.608;2024-01-11T07:28:59;-6.53;97.35
80579;SHT31;69939;52.402;6.608;2024-01-11T07:31:29;-6.52;96.90
80579;SHT31;69939;52.402;6.608;2024-01-11T07:33:59;-6.50;97.21
80579;SHT31;69939;52.402;6.608;2024-01-11T07:36:29;-6.53;96.82
80579;SHT31;69939;52.402;6.608;2024-01-11T07:38:58;-6.52;97.44
80579;SHT31;69939;52.402;6.608;2024-01-11T07:41:31;-6.50;97.10
80579;SHT31;69939;52.402;6.608;2024-01-11T07:44:06;-6.48;97.18
80579;SHT31;69939;52.402;6.608;2024-01-11T07:46:36;-6.48;97.31
80579;SHT31;69939;52.402;6.608;2024-01-11T07:49:05;-6.46;97.10
80579;SHT31;69939;52.402;6.608;2024-01-11T07:51:35;-6.46;96.97
80579;SHT31;69939;52.402;6.608;2024-01-11T07:54:05;-6.42;97.00
80579;SHT31;69939;52.402;6.608;2024-01-11T07:56:34;-6.42;96.43
80579;SHT31;69939;52.402;6.608;2024-01-11T07:59:06;-6.41;96.48
80579;SHT31;69939;52.402;6.608;2024-01-11T08:01:42;-6.38;97.47
80579;SHT31;69939;52.402;6.608;2024-01-11T08:04:12;-6.31;97.10
80579;SHT31;69939;52.402;6.608;2024-01-11T08:06:41;-6.25;97.33
80579;SHT31;69939;52.402;6.608;2024-01-11T08:09:11;-6.17;97.09
80579;SHT31;69939;52.402;6.608;2024-01-11T08:11:40;-6.08;97.41
80579;SHT31;69939;52.402;6.608;2024-01-11T08:14:14;-5.86;97.12
80579;SHT31;69939;52.402;6.608;2024-01-11T08:16:43;-5.66;97.09
80579;SHT31;69939;52.402;6.608;2024-01-11T08:19:19;-5.49;96.72
80579;SHT31;69939;52.402;6.608;2024-01-11T08:21:53;-5.31;96.61
80579;SHT31;69939;52.402;6.608;2024-01-11T08:24:22;-5.15;96.63
80579;SHT31;69939;52.402;6.608;2024-01-11T08:26:56;-5.04;96.69
80579;SHT31;69939;52.402;6.608;2024-01-11T08:29:30;-4.90;96.45
80579;SHT31;69939;52.402;6.608;2024-01-11T08:32:03;-4.77;96.55
80579;SHT31;69939;52.402;6.608;2024-01-11T08:34:36;-4.67;96.36
80579;SHT31;69939;52.402;6.608;2024-01-11T08:37:09;-4.59;96.53
80579;SHT31;69939;52.402;6.608;2024-01-11T08:39:40;-4.57;96.87
80579;SHT31;69939;52.402;6.608;2024-01-11T08:42:11;-4.49;96.97
80579;SHT31;69939;52.402;6.608;2024-01-11T08:44:41;-4.42;96.96
80579;SHT31;69939;52.402;6.608;2024-01-11T08:47:10;-4.33;97.05
80579;SHT31;69939;52.402;6.608;2024-01-11T08:49:44;-4.22;97.10
80579;SHT31;69939;52.402;6.608;2024-01-11T08:52:15;-4.15;97.17
80579;SHT31;69939;52.402;6.608;2024-01-11T08:54:44;-4.07;97.04
80579;SHT31;69939;52.402;6.608;2024-01-11T08:57:16;-3.95;97.28
80579;SHT31;69939;52.402;6.608;2024-01-11T08:59:46;-3.80;97.39
80579;SHT31;69939;52.402;6.608;2024-01-11T09:02:22;-3.69;97.35
80579;SHT31;69939;52.402;6.608;2024-01-11T09:04:57;-3.58;97.34
80579;SHT31;69939;52.402;6.608;2024-01-11T09:07:30;-3.46;97.21
80579;SHT31;69939;52.402;6.608;2024-01-11T09:10:00;-3.35;97.16
80579;SHT31;69939;52.402;6.608;2024-01-11T09:12:29;-3.25;97.17
80579;SHT31;69939;52.402;6.608;2024-01-11T09:14:59;-3.16;97.41
80579;SHT31;69939;52.402;6.608;2024-01-11T09:17:29;-3.14;97.33
80579;SHT31;69939;52.402;6.608;2024-01-11T09:20:01;-3.08;97.54
80579;SHT31;69939;52.402;6.608;2024-01-11T09:22:31;-2.98;97.29
80579;SHT31;69939;52.402;6.608;2024-01-11T09:25:00;-2.80;97.10
80579;SHT31;69939;52.402;6.608;2024-01-11T09:27:30;-2.76;96.92
80579;SHT31;69939;52.402;6.608;2024-01-11T09:30:00;-2.69;96.96
80579;SHT31;69939;52.402;6.608;2024-01-11T09:32:26;-2.57;96.69
80579;SHT31;69939;52.402;6.608;2024-01-11T09:34:56;-2.64;96.75
80579;SHT31;69939;52.402;6.608;2024-01-11T09:37:28;-2.60;97.44
80579;SHT31;69939;52.402;6.608;2024-01-11T09:39:58;-2.63;97.12
80579;SHT31;69939;52.402;6.608;2024-01-11T09:42:29;-2.63;97.76
80579;SHT31;69939;52.402;6.608;2024-01-11T09:44:59;-2.56;97.80
80579;SHT31;69939;52.402;6.608;2024-01-11T09:47:32;-2.34;97.61
80579;SHT31;69939;52.402;6.608;2024-01-11T09:50:04;-2.25;97.03
80579;SHT31;69939;52.402;6.608;2024-01-11T09:52:38;-2.15;96.50
80579;SHT31;69939;52.402;6.608;2024-01-11T09:55:08;-2.14;96.40
80579;SHT31;69939;52.402;6.608;2024-01-11T09:57:41;-2.12;96.05
80579;SHT31;69939;52.402;6.608;2024-01-11T10:00:16;-2.14;96.43
80579;SHT31;69939;52.402;6.608;2024-01-11T10:02:49;-2.16;95.99
80579;SHT31;69939;52.402;6.608;2024-01-11T10:05:19;-2.09;96.44
80579;SHT31;69939;52.402;6.608;2024-01-11T10:07:51;-1.94;96.49
80579;SHT31;69939;52.402;6.608;2024-01-11T10:10:26;-1.94;96.19
80579;SHT31;69939;52.402;6.608;2024-01-11T10:12:57;-1.74;96.37
80579;SHT31;69939;52.402;6.608;2024-01-11T10:15:26;-1.77;95.12
80579;SHT31;69939;52.402;6.608;2024-01-11T10:17:56;-1.71;95.18
80579;SHT31;69939;52.402;6.608;2024-01-11T10:20:25;-1.56;95.82
80579;SHT31;69939;52.402;6.608;2024-01-11T10:22:56;-1.46;95.55
80579;SHT31;69939;52.402;6.608;2024-01-11T10:25:29;-1.38;94.81
80579;SHT31;69939;52.402;6.608;2024-01-11T10:27:59;-1.43;94.65
80579;SHT31;69939;52.402;6.608;2024-01-11T10:30:29;-1.53;94.80
80579;SHT31;69939;52.402;6.608;2024-01-11T10:32:59;-1.42;94.93
80579;SHT31;69939;52.402;6.608;2024-01-11T10:35:35;-1.29;95.13
80579;SHT31;69939;52.402;6.608;2024-01-11T10:38:09;-1.12;95.37
80579;SHT31;69939;52.402;6.608;2024-01-11T10:40:46;-1.02;94.84
80579;SHT31;69939;52.402;6.608;2024-01-11T10:43:21;-1.00;94.49
80579;SHT31;69939;52.402;6.608;2024-01-11T10:45:52;-1.07;94.43
80579;SHT31;69939;52.402;6.608;2024-01-11T10:48:30;-1.09;94.12
80579;SHT31;69939;52.402;6.608;2024-01-11T10:51:01;-1.04;94.44
80579;SHT31;69939;52.402;6.608;2024-01-11T10:53:45;-1.09;94.48
80579;SHT31;69939;52.402;6.608;2024-01-11T10:56:16;-1.04;94.34
80579;SHT31;69939;52.402;6.608;2024-01-11T10:58:47;-1.02;94.84
80579;SHT31;69939;52.402;6.608;2024-01-11T11:01:17;-0.98;94.53
80579;SHT31;69939;52.402;6.608;2024-01-11T11:03:51;-0.98;94.79
80579;SHT31;69939;52.402;6.608;2024-01-11T11:06:24;-0.92;94.59
80579;SHT31;69939;52.402;6.608;2024-01-11T11:08:58;-0.95;94.63
80579;SHT31;69939;52.402;6.608;2024-01-11T11:11:30;-0.95;94.85
80579;SHT31;69939;52.402;6.608;2024-01-11T11:14:00;-0.84;95.46
80579;SHT31;69939;52.402;6.608;2024-01-11T11:16:30;-0.85;95.63
80579;SHT31;69939;52.402;6.608;2024-01-11T11:19:01;-0.85;95.39
80579;SHT31;69939;52.402;6.608;2024-01-11T11:21:30;-0.81;95.60
80579;SHT31;69939;52.402;6.608;2024-01-11T11:24:03;-0.84;95.73
80579;SHT31;69939;52.402;6.608;2024-01-11T11:26:32;-0.90;95.74
80579;SHT31;69939;52.402;6.608;2024-01-11T11:29:03;-0.77;95.93
80579;SHT31;69939;52.402;6.608;2024-01-11T11:31:41;-0.73;95.25
80579;SHT31;69939;52.402;6.608;2024-01-11T11:34:13;-0.56;95.62
80579;SHT31;69939;52.402;6.608;2024-01-11T11:36:46;-0.63;95.91
80579;SHT31;69939;52.402;6.608;2024-01-11T11:39:20;-0.60;95.96
80579;SHT31;69939;52.402;6.608;2024-01-11T11:41:51;-0.61;95.61
80579;SHT31;69939;52.402;6.608;2024-01-11T11:44:24;-0.59;95.63
80579;SHT31;69939;52.402;6.608;2024-01-11T11:47:18;-0.54;95.80
80579;SHT31;69939;52.402;6.608;2024-01-11T11:50:02;-0.46;96.00
80579;SHT31;69939;52.402;6.608;2024-01-11T11:52:34;-0.46;95.93
80579;SHT31;69939;52.402;6.608;2024-01-11T11:55:07;-0.50;95.44
80579;SHT31;69939;52.402;6.608;2024-01-11T11:57:37;-0.56;96.20
80579;SHT31;69939;52.402;6.608;2024-01-11T12:00:08;-0.40;96.18
80579;SHT31;69939;52.402;6.608;2024-01-11T12:02:43;-0.52;96.23
80579;SHT31;69939;52.402;6.608;2024-01-11T12:05:16;-0.44;96.49
80579;SHT31;69939;52.402;6.608;2024-01-11T12:07:47;-0.48;95.71
80579;SHT31;69939;52.402;6.608;2024-01-11T12:10:17;-0.30;96.32
80579;SHT31;69939;52.402;6.608;2024-01-11T12:12:46;-0.26;95.55
80579;SHT31;69939;52.402;6.608;2024-01-11T12:15:16;-0.40;95.02
80579;SHT31;69939;52.402;6.608;2024-01-11T12:17:48;-0.44;95.57
80579;SHT31;69939;52.402;6.608;2024-01-11T12:20:18;-0.52;95.80
80579;SHT31;69939;52.402;6.608;2024-01-11T12:22:47;-0.54;96.08
80579;SHT31;69939;52.402;6.608;2024-01-11T12:25:17;-0.46;96.02
80579;SHT31;69939;52.402;6.608;2024-01-11T12:27:47;-0.52;96.32
80579;SHT31;69939;52.402;6.608;2024-01-11T12:30:17;-0.57;96.52
80579;SHT31;69939;52.402;6.608;2024-01-11T12:32:52;-0.43;96.70
80579;SHT31;69939;52.402;6.608;2024-01-11T12:35:23;-0.34;96.23
80579;SHT31;69939;52.402;6.608;2024-01-11T12:37:53;-0.29;95.76
80579;SHT31;69939;52.402;6.608;2024-01-11T12:40:23;-0.39;95.88
80579;SHT31;69939;52.402;6.608;2024-01-11T12:42:52;-0.23;95.94
80579;SHT31;69939;52.402;6.608;2024-01-11T12:45:23;-0.06;95.62
80579;SHT31;69939;52.402;6.608;2024-01-11T12:47:57;-0.01;95.33
80579;SHT31;69939;52.402;6.608;2024-01-11T12:50:33;0.09;95.28
80579;SHT31;69939;52.402;6.608;2024-01-11T12:53:07;0.07;94.95
80579;SHT31;69939;52.402;6.608;2024-01-11T12:55:44;-0.08;94.84
80579;SHT31;69939;52.402;6.608;2024-01-11T12:58:13;-0.15;95.62
80579;SHT31;69939;52.402;6.608;2024-01-11T13:00:51;-0.01;95.48
80579;SHT31;69939;52.402;6.608;2024-01-11T13:03:24;0.06;95.11
80579;SHT31;69939;52.402;6.608;2024-01-11T13:05:57;0.01;95.16
80579;SHT31;69939;52.402;6.608;2024-01-11T13:08:27;-0.05;95.29
80579;SHT31;69939;52.402;6.608;2024-01-11T13:10:57;-0.13;95.66
80579;SHT31;69939;52.402;6.608;2024-01-11T13:13:27;-0.04;96.42
80579;SHT31;69939;52.402;6.608;2024-01-11T13:15:56;-0.01;95.89
80579;SHT31;69939;52.402;6.608;2024-01-11T13:18:26;0.02;95.80
80579;SHT31;69939;52.402;6.608;2024-01-11T13:21:01;-0.05;95.59
80579;SHT31;69939;52.402;6.608;2024-01-11T13:23:32;0.02;96.03
80579;SHT31;69939;52.402;6.608;2024-01-11T13:26:04;0.05;95.78
80579;SHT31;69939;52.402;6.608;2024-01-11T13:28:37;0.09;95.85
80579;SHT31;69939;52.402;6.608;2024-01-11T13:31:07;0.01;95.81
80579;SHT31;69939;52.402;6.608;2024-01-11T13:33:38;-0.01;95.71
80579;SHT31;69939;52.402;6.608;2024-01-11T13:36:10;0.09;95.68
80579;SHT31;69939;52.402;6.608;2024-01-11T13:38:40;0.07;95.70
80579;SHT31;69939;52.402;6.608;2024-01-11T13:41:09;0.07;96.26
80579;SHT31;69939;52.402;6.608;2024-01-11T13:43:39;0.02;95.72
80579;SHT31;69939;52.402;6.608;2024-01-11T13:46:08;0.09;95.86
80579;SHT31;69939;52.402;6.608;2024-01-11T13:48:42;0.15;95.62
80579;SHT31;69939;52.402;6.608;2024-01-11T13:51:14;0.26;95.28
80579;SHT31;69939;52.402;6.608;2024-01-11T13:53:43;0.19;95.92
80579;SHT31;69939;52.402;6.608;2024-01-11T13:56:13;0.22;95.74
80579;SHT31;69939;52.402;6.608;2024-01-11T13:58:42;0.13;95.83
80579;SHT31;69939;52.402;6.608;2024-01-11T14:01:12;0.12;96.18
80579;SHT31;69939;52.402;6.608;2024-01-11T14:03:42;0.09;96.78
80579;SHT31;69939;52.402;6.608;2024-01-11T14:06:14;0.17;96.90
80579;SHT31;69939;52.402;6.608;2024-01-11T14:08:44;0.12;96.55
80579;SHT31;69939;52.402;6.608;2024-01-11T14:11:13;0.03;97.20
80579;SHT31;69939;52.402;6.608;2024-01-11T14:13:42;-0.02;97.41
80579;SHT31;69939;52.402;6.608;2024-01-11T14:16:12;-0.04;97.85
80579;SHT31;69939;52.402;6.608;2024-01-11T14:18:45;-0.04;98.19
80579;SHT31;69939;52.402;6.608;2024-01-11T14:21:21;-0.04;98.64
80579;SHT31;69939;52.402;6.608;2024-01-11T14:23:50;-0.02;98.85
80579;SHT31;69939;52.402;6.608;2024-01-11T14:26:20;-0.01;99.13
80579;SHT31;69939;52.402;6.608;2024-01-11T14:28:49;-0.13;98.78
80579;SHT31;69939;52.402;6.608;2024-01-11T14:31:20;-0.13;98.95
80579;SHT31;69939;52.402;6.608;2024-01-11T14:33:49;-0.11;99.22
80579;SHT31;69939;52.402;6.608;2024-01-11T14:36:21;-0.09;98.95
80579;SHT31;69939;52.402;6.608;2024-01-11T14:38:51;-0.09;99.00
80579;SHT31;69939;52.402;6.608;2024-01-11T14:41:20;-0.05;99.35
80579;SHT31;69939;52.402;6.608;2024-01-11T14:43:54;-0.08;99.26
80579;SHT31;69939;52.402;6.608;2024-01-11T14:46:29;-0.06;99.65
80579;SHT31;69939;52.402;6.608;2024-01-11T14:48:59;-0.09;99.58
80579;SHT31;69939;52.402;6.608;2024-01-11T14:51:30;-0.09;99.99
80579;SHT31;69939;52.402;6.608;2024-01-11T14:53:59;-0.09;99.99
80579;SHT31;69939;52.402;6.608;2024-01-11T14:56:29;-0.21;99.99
80579;SHT31;69939;52.402;6.608;2024-01-11T14:59:00;-0.13;99.99
80579;SHT31;69939;52.402;6.608;2024-01-11T15:01:33;-0.16;99.99
80579;SHT31;69939;52.402;6.608;2024-01-11T15:04:02;-0.15;99.99
80579;SHT31;69939;52.402;6.608;2024-01-11T15:06:31;-0.16;99.99
80579;SHT31;69939;52.402;6.608;2024-01-11T15:09:02;-0.19;99.99
80579;SHT31;69939;52.402;6.608;2024-01-11T15:11:35;-0.18;99.99
80579;SHT31;69939;52.402;6.608;2024-01-11T15:14:08;-0.16;99.99
80579;SHT31;69939;52.402;6.608;2024-01-11T15:16:41;-0.11;99.99
80579;SHT31;69939;52.402;6.608;2024-01-11T15:19:11;-0.16;99.99
80579;SHT31;69939;52.402;6.608;2024-01-11T15:21:41;-0.18;99.99
80579;SHT31;69939;52.402;6.608;2024-01-11T15:24:12;-0.22;99.99
80579;SHT31;69939;52.402;6.608;2024-01-11T15:26:44;-0.22;99.99
80579;SHT31;69939;52.402;6.608;2024-01-11T15:29:14;-0.22;99.99
80579;SHT31;69939;52.402;6.608;2024-01-11T15:31:49;-0.22;99.99
80579;SHT31;69939;52.402;6.608;2024-01-11T15:34:19;-0.22;99.99
80579;SHT31;69939;52.402;6.608;2024-01-11T15:36:49;-0.26;99.99
80579;SHT31;69939;52.402;6.608;2024-01-11T15:39:19;-0.23;99.99
80579;SHT31;69939;52.402;6.608;2024-01-11T15:41:48;-0.28;99.99
80579;SHT31;69939;52.402;6.608;2024-01-11T15:44:23;-0.29;99.99
80579;SHT31;69939;52.402;6.608;2024-01-11T15:46:53;-0.29;99.99
80579;SHT31;69939;52.402;6.608;2024-01-11T15:49:23;-0.25;99.99
80579;SHT31;69939;52.402;6.608;2024-01-11T15:51:53;-0.22;99.99
80579;SHT31;69939;52.402;6.608;2024-01-11T15:54:25;-0.22;99.99
80579;SHT31;69939;52.402;6.608;2024-01-11T15:56:55;-0.18;99.99
80579;SHT31;69939;52.402;6.608;2024-01-11T15:59:27;-0.22;99.99